Time;durP1;ratioP1;P1;durP2;ratioP2;P2;SDS_P1;SDS_P2;PMS_P1;PMS_P2;Temp;Humidity;BMP_temperature;BMP_pressure;BME280_temperature;BME280_humidity;BME280_pressure;Samples;Min_cycle;Max_cycle;Signal;HPM_P1;HPM_P2
2021/03/27 00:01:04;;;;;;;26.80;19.70;;;10.20;83.50;;;;;;5025545;28;20208;-59
2021/03/27 00:03:37;;;;;;;28.13;19.47;;;10.10;83.60;;;;;;5027784;28;20695;-59
2021/03/27 00:06:14;;;;;;;26.90;20.30;;;10.10;83.70;;;;;;5019994;28;20219;-59
2021/03/27 00:08:58;;;;;;;27.10;20.07;;;10.10;83.90;;;;;;5017438;28;20596;-59
2021/03/27 00:11:40;;;;;;;25.73;18.37;;;10.00;84.20;;;;;;5066925;28;20234;-59
2021/03/27 00:14:23;;;;;;;25.87;19.97;;;10.00;84.00;;;;;;5059600;28;20315;-59
2021/03/27 00:17:04;;;;;;;27.83;20.43;;;10.00;84.20;;;;;;5060324;28;20218;-59
2021/03/27 00:19:42;;;;;;;29.20;20.57;;;10.00;84.70;;;;;;5070689;28;20717;-59
2021/03/27 00:22:27;;;;;;;34.03;20.03;;;10.00;85.00;;;;;;5049626;28;20213;-59
2021/03/27 00:24:54;;;;;;;27.90;20.27;;;10.00;85.00;;;;;;5063221;28;20255;-59
2021/03/27 00:27:40;;;;;;;25.10;19.07;;;10.00;85.00;;;;;;5050901;28;20290;-59
2021/03/27 00:30:17;;;;;;;22.40;18.50;;;10.00;85.10;;;;;;5062398;28;20296;-59
2021/03/27 00:32:50;;;;;;;20.30;18.00;;;10.00;84.90;;;;;;5066076;28;20546;-59
2021/03/27 00:35:55;;;;;;;25.70;19.10;;;10.00;84.90;;;;;;5070681;28;20206;-59
2021/03/27 00:38:25;;;;;;;22.13;17.43;;;10.00;84.90;;;;;;5026073;28;20238;-59
2021/03/27 00:40:53;;;;;;;23.20;17.77;;;10.00;84.80;;;;;;5027814;28;20207;-59
2021/03/27 00:43:26;;;;;;;22.97;16.53;;;10.00;84.70;;;;;;5027699;28;20599;-59
2021/03/27 00:45:58;;;;;;;25.77;18.73;;;10.00;84.60;;;;;;5029787;28;20210;-59
2021/03/27 00:48:46;;;;;;;26.30;18.07;;;10.10;84.60;;;;;;5047721;28;20217;-59
2021/03/27 00:51:21;;;;;;;25.87;17.70;;;10.10;84.60;;;;;;5066530;28;20598;-59
2021/03/27 00:53:55;;;;;;;28.30;17.53;;;10.10;84.50;;;;;;5067126;28;20237;-59
2021/03/27 00:56:36;;;;;;;23.90;18.43;;;10.10;84.50;;;;;;5061279;28;20306;-59
2021/03/27 00:59:13;;;;;;;26.07;20.07;;;10.10;84.60;;;;;;5070247;28;20214;-59
2021/03/27 01:01:43;;;;;;;33.13;21.23;;;10.10;84.80;;;;;;5063697;28;20217;-59
2021/03/27 01:04:15;;;;;;;29.17;22.67;;;10.10;85.50;;;;;;5064543;28;20603;-59
2021/03/27 01:06:54;;;;;;;29.43;18.63;;;10.10;86.10;;;;;;5066170;28;20280;-59
2021/03/27 01:09:50;;;;;;;32.60;19.00;;;10.10;86.20;;;;;;5060016;28;20836;-58
2021/03/27 01:12:46;;;;;;;23.93;17.30;;;10.10;85.70;;;;;;5067463;28;20243;-58
2021/03/27 01:15:13;;;;;;;20.53;16.20;;;10.00;85.30;;;;;;5063832;28;20206;-59
2021/03/27 01:17:44;;;;;;;25.00;17.87;;;9.90;85.10;;;;;;5070143;28;20210;-59
2021/03/27 01:20:26;;;;;;;31.00;20.30;;;9.90;85.20;;;;;;5050225;28;20356;-59
2021/03/27 01:22:54;;;;;;;27.00;19.33;;;9.90;85.40;;;;;;5060396;28;20218;-59
2021/03/27 01:25:28;;;;;;;27.40;18.87;;;9.90;85.40;;;;;;5064078;28;20675;-59
2021/03/27 01:28:05;;;;;;;28.67;20.53;;;9.90;85.40;;;;;;5046695;28;20296;-59
2021/03/27 01:30:32;;;;;;;26.67;19.53;;;9.90;85.30;;;;;;5069284;28;20647;-59
2021/03/27 01:33:20;;;;;;;27.67;20.10;;;9.90;85.40;;;;;;5066990;28;20201;-59
2021/03/27 01:35:57;;;;;;;27.70;20.73;;;9.90;85.70;;;;;;5065121;28;20194;-59
2021/03/27 01:39:00;;;;;;;25.83;20.03;;;9.90;85.80;;;;;;5044207;28;20479;-59
2021/03/27 01:41:38;;;;;;;23.40;19.10;;;9.90;86.10;;;;;;5052089;28;20216;-59
2021/03/27 01:44:37;;;;;;;24.77;20.93;;;9.90;86.00;;;;;;5065134;28;20210;-59
2021/03/27 01:47:23;;;;;;;28.17;19.27;;;9.80;86.20;;;;;;5059563;28;20655;-59
2021/03/27 01:50:02;;;;;;;30.27;21.77;;;9.80;86.30;;;;;;5068613;28;20261;-59
2021/03/27 01:52:43;;;;;;;26.50;19.10;;;9.80;86.50;;;;;;5067491;28;20226;-59
2021/03/27 01:55:19;;;;;;;20.63;16.70;;;9.80;86.70;;;;;;5057353;28;20242;-59
2021/03/27 01:58:03;;;;;;;32.47;23.13;;;9.70;86.20;;;;;;5045746;28;20290;-59
2021/03/27 02:00:42;;;;;;;27.73;20.87;;;9.60;86.40;;;;;;5054372;28;20210;-59
2021/03/27 02:03:28;;;;;;;30.97;21.43;;;9.60;87.30;;;;;;5064114;28;20232;-59
2021/03/27 02:06:17;;;;;;;29.03;19.70;;;9.60;87.50;;;;;;5057443;28;20202;-60
2021/03/27 02:08:53;;;;;;;28.73;21.10;;;9.60;87.40;;;;;;5047820;28;20225;-59
2021/03/27 02:11:57;;;;;;;33.70;24.80;;;9.60;88.10;;;;;;5054394;28;20299;-58
2021/03/27 02:14:42;;;;;;;23.03;16.97;;;9.60;87.90;;;;;;5064464;28;20214;-58
2021/03/27 02:17:38;;;;;;;36.33;23.73;;;9.50;87.80;;;;;;5068690;28;20220;-58
2021/03/27 02:20:13;;;;;;;28.10;19.57;;;9.60;88.00;;;;;;5065873;28;20242;-59
2021/03/27 02:22:55;;;;;;;26.53;21.13;;;9.60;88.20;;;;;;5062484;28;20221;-59
2021/03/27 02:26:19;;;;;;;33.47;24.63;;;9.50;87.90;;;;;;5060687;28;20220;-59
2021/03/27 02:28:58;;;;;;;31.47;23.40;;;9.50;88.40;;;;;;4957394;28;20319;-59
2021/03/27 02:31:39;;;;;;;41.33;28.93;;;9.40;88.30;;;;;;4989612;28;20255;-59
2021/03/27 02:34:26;;;;;;;36.63;26.20;;;9.40;89.10;;;;;;5045588;28;20201;-59
2021/03/27 02:37:08;;;;;;;30.90;24.73;;;9.40;89.60;;;;;;5064157;28;20640;-59
2021/03/27 02:40:00;;;;;;;38.73;26.90;;;9.40;89.50;;;;;;5059589;28;20214;-59
2021/03/27 02:42:30;;;;;;;33.57;25.43;;;9.50;90.10;;;;;;5071264;28;20543;-59
2021/03/27 02:45:08;;;;;;;37.77;28.77;;;9.50;89.40;;;;;;5070762;28;20213;-59
2021/03/27 02:47:54;;;;;;;38.13;26.10;;;9.50;89.80;;;;;;5067140;28;20218;-59
2021/03/27 02:50:54;;;;;;;32.07;25.30;;;9.50;90.00;;;;;;5045088;28;20263;-59
2021/03/27 02:53:33;;;;;;;31.93;24.20;;;9.60;90.20;;;;;;5066222;28;20207;-59
2021/03/27 02:56:18;;;;;;;32.67;26.73;;;9.60;89.60;;;;;;5070270;28;20213;-58
2021/03/27 02:59:16;;;;;;;26.17;21.77;;;9.60;90.10;;;;;;5072543;28;20214;-58
2021/03/27 03:01:55;;;;;;;29.83;22.20;;;9.60;89.20;;;;;;5061117;28;20590;-58
2021/03/27 03:04:45;;;;;;;32.50;23.40;;;9.60;89.00;;;;;;5072020;28;20210;-59
2021/03/27 03:07:18;;;;;;;32.63;22.43;;;9.50;89.00;;;;;;5043614;28;20268;-58
2021/03/27 03:09:54;;;;;;;30.37;24.67;;;9.50;88.80;;;;;;5070130;28;20210;-59
2021/03/27 03:13:04;;;;;;;36.40;25.67;;;9.40;88.60;;;;;;5073360;28;20624;-59
2021/03/27 03:15:37;;;;;;;27.90;21.37;;;9.30;88.90;;;;;;5053759;28;20242;-59
2021/03/27 03:18:59;;;;;;;28.03;20.97;;;9.30;89.10;;;;;;5071576;28;20198;-59
2021/03/27 03:21:35;;;;;;;36.00;22.37;;;9.20;88.70;;;;;;4959855;28;20652;-59
2021/03/27 03:24:19;;;;;;;45.97;25.93;;;9.20;88.70;;;;;;5057758;28;20244;-59
2021/03/27 03:27:11;;;;;;;31.20;23.00;;;9.20;88.80;;;;;;5064555;28;20206;-59
2021/03/27 03:30:00;;;;;;;28.97;23.67;;;9.10;89.10;;;;;;5054232;28;20244;-59
2021/03/27 03:32:55;;;;;;;33.20;24.77;;;9.10;89.50;;;;;;5068564;28;20583;-59
2021/03/27 03:35:45;;;;;;;42.23;27.47;;;9.10;90.20;;;;;;5068090;28;20224;-59
2021/03/27 03:38:40;;;;;;;38.57;26.60;;;9.10;90.10;;;;;;5020817;28;20212;-59
2021/03/27 03:41:28;;;;;;;35.83;25.27;;;9.00;90.30;;;;;;5070328;28;20206;-59
2021/03/27 03:44:07;;;;;;;35.13;24.83;;;9.10;90.30;;;;;;5057007;28;20241;-59
2021/03/27 03:46:49;;;;;;;33.10;23.27;;;9.00;90.40;;;;;;5047275;28;20275;-59
2021/03/27 03:49:51;;;;;;;34.20;24.57;;;9.00;90.40;;;;;;5043690;28;20264;-59
2021/03/27 03:52:34;;;;;;;26.67;21.90;;;8.90;90.30;;;;;;5060924;28;20264;-59
2021/03/27 03:55:09;;;;;;;30.47;21.63;;;8.80;90.10;;;;;;5062081;28;20226;-59
2021/03/27 03:57:59;;;;;;;35.87;26.47;;;8.80;90.00;;;;;;5062400;28;20591;-59
2021/03/27 04:00:55;;;;;;;29.57;21.73;;;8.70;90.20;;;;;;5064200;28;20213;-59
2021/03/27 04:03:52;;;;;;;33.13;22.47;;;8.70;90.30;;;;;;5060714;28;20202;-59
2021/03/27 04:06:24;;;;;;;31.67;23.30;;;8.70;90.20;;;;;;5063818;28;20213;-59
2021/03/27 04:09:22;;;;;;;28.67;22.10;;;8.60;90.20;;;;;;5048804;28;20241;-60
2021/03/27 04:12:13;;;;;;;29.97;21.70;;;8.60;90.20;;;;;;5068398;28;20251;-59
2021/03/27 04:15:09;;;;;;;30.77;19.67;;;8.50;90.10;;;;;;5059403;28;20209;-59
2021/03/27 04:17:53;;;;;;;30.67;18.20;;;8.50;89.90;;;;;;5064573;28;20243;-59
2021/03/27 04:20:44;;;;;;;28.27;21.27;;;8.50;89.40;;;;;;5044929;28;20252;-59
2021/03/27 04:23:20;;;;;;;34.50;22.80;;;8.40;89.40;;;;;;5044649;28;20213;-59
2021/03/27 04:26:12;;;;;;;120.63;28.13;;;8.40;89.50;;;;;;5060497;28;20214;-59
2021/03/27 04:28:53;;;;;;;34.57;23.87;;;8.30;89.90;;;;;;5070363;28;20246;-59
2021/03/27 04:32:04;;;;;;;33.90;23.80;;;8.30;90.40;;;;;;5041284;28;20309;-59
2021/03/27 04:35:02;;;;;;;32.03;22.30;;;8.20;90.20;;;;;;5007823;28;20228;-59
2021/03/27 04:37:39;;;;;;;59.20;24.93;;;8.20;90.10;;;;;;5068055;28;20220;-59
2021/03/27 04:40:12;;;;;;;34.50;23.07;;;8.10;90.10;;;;;;5048171;28;20321;-59
2021/03/27 04:42:53;;;;;;;33.10;22.57;;;8.10;90.10;;;;;;5058951;28;20249;-59
2021/03/27 04:45:26;;;;;;;33.73;22.43;;;8.00;90.00;;;;;;5067607;28;20213;-59
2021/03/27 04:48:15;;;;;;;38.77;26.63;;;8.00;90.00;;;;;;5053197;28;20205;-59
2021/03/27 04:51:12;;;;;;;31.43;25.10;;;7.90;89.60;;;;;;5069693;28;20205;-59
2021/03/27 04:53:48;;;;;;;195.17;26.20;;;7.90;89.40;;;;;;5057272;28;20272;-59
2021/03/27 04:56:29;;;;;;;449.93;39.40;;;7.80;89.30;;;;;;5064509;28;20209;-59
2021/03/27 04:59:36;;;;;;;38.77;25.43;;;7.70;89.90;;;;;;5068661;28;20288;-59
2021/03/27 05:02:12;;;;;;;26.30;18.33;;;7.70;90.30;;;;;;5067372;28;20205;-59
2021/03/27 05:05:04;;;;;;;83.27;17.67;;;7.80;90.40;;;;;;5064254;28;20209;-59
2021/03/27 05:07:53;;;;;;;27.80;20.43;;;7.70;90.30;;;;;;5064805;28;20722;-59
2021/03/27 05:10:32;;;;;;;24.43;20.33;;;7.70;90.30;;;;;;5069594;28;20328;-59
2021/03/27 05:13:15;;;;;;;30.80;22.17;;;7.70;90.40;;;;;;5060770;28;20230;-59
2021/03/27 05:15:50;;;;;;;26.77;21.47;;;7.60;90.00;;;;;;5066176;28;20201;-59
2021/03/27 05:18:25;;;;;;;25.13;20.73;;;7.50;89.80;;;;;;5066438;28;20197;-59
2021/03/27 05:21:29;;;;;;;29.80;22.47;;;7.40;90.00;;;;;;5064270;28;20301;-59
2021/03/27 05:24:23;;;;;;;31.07;21.03;;;7.40;90.20;;;;;;5057757;28;20205;-59
2021/03/27 05:27:08;;;;;;;25.20;20.67;;;7.40;90.20;;;;;;5067266;28;20297;-59
2021/03/27 05:29:47;;;;;;;29.57;22.53;;;7.50;90.10;;;;;;5061428;28;20652;-59
2021/03/27 05:32:23;;;;;;;24.17;19.23;;;7.60;90.10;;;;;;5067872;28;20260;-59
2021/03/27 05:34:53;;;;;;;28.20;22.40;;;7.70;90.00;;;;;;5043013;28;20206;-59
2021/03/27 05:37:32;;;;;;;29.70;24.37;;;7.70;89.30;;;;;;5061254;28;20241;-59
2021/03/27 05:40:14;;;;;;;29.00;24.03;;;7.70;89.20;;;;;;5059168;28;20628;-59
2021/03/27 05:43:01;;;;;;;43.20;23.20;;;7.70;89.40;;;;;;5063625;28;20213;-59
2021/03/27 05:45:37;;;;;;;28.00;21.80;;;7.70;89.30;;;;;;5069314;28;20715;-59
2021/03/27 05:48:13;;;;;;;26.83;22.90;;;7.80;89.40;;;;;;5064241;28;20210;-59
2021/03/27 05:50:52;;;;;;;36.20;22.10;;;7.80;88.90;;;;;;5068831;28;20627;-59
2021/03/27 05:53:40;;;;;;;45.57;24.53;;;7.70;88.70;;;;;;5065887;28;20277;-59
2021/03/27 05:56:25;;;;;;;95.43;28.50;;;7.70;89.20;;;;;;5053657;28;20301;-59
2021/03/27 05:58:58;;;;;;;120.97;31.50;;;7.60;89.40;;;;;;5057127;28;20217;-59
2021/03/27 06:01:37;;;;;;;91.07;33.33;;;7.60;89.90;;;;;;5073641;28;20293;-59
2021/03/27 06:04:16;;;;;;;141.27;36.57;;;7.60;90.20;;;;;;5061794;28;20214;-59
2021/03/27 06:07:24;;;;;;;178.57;39.43;;;7.60;90.50;;;;;;5062847;28;20282;-59
2021/03/27 06:10:34;;;;;;;89.80;34.17;;;7.70;90.70;;;;;;5064934;28;20585;-59
2021/03/27 06:13:32;;;;;;;156.63;39.57;;;7.80;90.80;;;;;;4989112;28;20704;-59
2021/03/27 06:16:42;;;;;;;182.97;44.27;;;7.90;90.90;;;;;;5002321;28;20215;-59
2021/03/27 06:19:22;;;;;;;177.03;44.50;;;8.10;91.10;;;;;;5052793;28;20209;-60
2021/03/27 06:22:23;;;;;;;120.43;43.33;;;8.30;91.10;;;;;;5056695;28;20575;-59
2021/03/27 06:25:01;;;;;;;190.27;49.33;;;8.50;91.20;;;;;;5060832;28;20706;-59
2021/03/27 06:28:06;;;;;;;234.13;50.97;;;8.70;91.20;;;;;;5041590;28;20210;-59
2021/03/27 06:30:57;;;;;;;208.77;48.43;;;8.90;91.20;;;;;;5072696;28;20712;-59
2021/03/27 06:33:55;;;;;;;345.83;60.80;;;9.00;91.40;;;;;;5070887;28;20244;-59
2021/03/27 06:36:49;;;;;;;94.07;44.27;;;9.10;91.60;;;;;;5063611;28;20202;-59
2021/03/27 06:39:46;;;;;;;78.53;43.93;;;9.20;91.70;;;;;;5070516;28;20579;-59
2021/03/27 06:42:42;;;;;;;62.53;42.07;;;9.40;91.70;;;;;;5062677;28;20221;-59
2021/03/27 06:45:29;;;;;;;94.80;42.47;;;9.60;91.70;;;;;;5053441;28;20225;-59
2021/03/27 06:48:24;;;;;;;85.27;45.27;;;9.80;91.70;;;;;;5069049;28;20240;-59
2021/03/27 06:51:19;;;;;;;87.67;44.57;;;9.90;91.70;;;;;;5053597;28;20206;-59
2021/03/27 06:54:13;;;;;;;70.53;42.70;;;10.00;91.70;;;;;;5064860;28;20816;-59
2021/03/27 06:57:09;;;;;;;77.37;46.97;;;10.00;91.80;;;;;;5051185;28;20226;-60
2021/03/27 07:00:10;;;;;;;87.27;44.80;;;10.10;92.00;;;;;;5064979;28;20221;-60
2021/03/27 07:03:14;;;;;;;89.13;46.20;;;10.20;92.20;;;;;;5068520;28;20209;-59
2021/03/27 07:06:35;;;;;;;71.93;44.60;;;10.30;92.30;;;;;;5047665;28;20209;-59
2021/03/27 07:09:18;;;;;;;78.20;45.90;;;10.50;92.30;;;;;;4986664;28;20211;-59
2021/03/27 07:12:22;;;;;;;72.20;46.60;;;10.70;92.30;;;;;;4982075;28;20350;-59
2021/03/27 07:15:17;;;;;;;69.77;42.30;;;10.80;92.20;;;;;;4992380;28;20223;-59
2021/03/27 07:18:20;;;;;;;71.63;41.70;;;11.00;92.30;;;;;;5021195;28;20214;-60
2021/03/27 07:21:13;;;;;;;73.40;39.30;;;11.10;92.30;;;;;;5053139;28;20202;-59
2021/03/27 07:24:01;;;;;;;62.00;34.63;;;11.10;92.40;;;;;;5069709;28;20643;-59
2021/03/27 07:26:47;;;;;;;52.10;32.00;;;11.20;92.50;;;;;;5058017;28;20245;-59
2021/03/27 07:29:45;;;;;;;53.00;31.30;;;11.40;92.50;;;;;;5051802;28;20206;-59
2021/03/27 07:32:40;;;;;;;49.87;31.13;;;11.50;92.50;;;;;;5042986;28;20238;-59
2021/03/27 07:35:29;;;;;;;60.03;32.83;;;11.60;92.50;;;;;;5045376;28;20233;-59
2021/03/27 07:38:05;;;;;;;51.53;31.80;;;11.80;92.40;;;;;;5066536;28;20203;-59
2021/03/27 07:40:46;;;;;;;51.57;28.77;;;11.90;92.40;;;;;;5053599;28;20218;-59
2021/03/27 07:43:32;;;;;;;49.60;30.90;;;11.90;92.30;;;;;;5052372;28;20219;-59
2021/03/27 07:46:23;;;;;;;44.73;30.23;;;12.10;92.20;;;;;;5071890;28;20209;-59
2021/03/27 07:49:21;;;;;;;51.43;31.53;;;12.20;92.10;;;;;;5050737;28;20552;-59
2021/03/27 07:52:00;;;;;;;47.63;32.30;;;12.30;91.90;;;;;;5065397;28;20539;-59
2021/03/27 07:54:52;;;;;;;48.90;31.10;;;12.40;91.70;;;;;;5063987;28;20232;-59
2021/03/27 07:58:04;;;;;;;48.43;32.37;;;12.50;91.60;;;;;;5075144;28;20686;-59
2021/03/27 08:00:57;;;;;;;48.43;31.37;;;12.60;91.60;;;;;;5045741;28;20262;-59
2021/03/27 08:03:40;;;;;;;44.57;29.50;;;12.80;91.40;;;;;;5070032;28;20627;-59
2021/03/27 08:06:46;;;;;;;46.23;30.67;;;12.80;91.10;;;;;;5066119;28;20218;-60
2021/03/27 08:09:22;;;;;;;43.83;31.03;;;12.90;91.00;;;;;;5068324;28;20239;-60
2021/03/27 08:11:55;;;;;;;41.43;29.17;;;12.90;90.80;;;;;;5064365;28;20294;-60
2021/03/27 08:14:59;;;;;;;44.60;31.37;;;13.00;90.80;;;;;;5068168;28;20562;-60
2021/03/27 08:18:04;;;;;;;49.17;31.77;;;13.00;90.70;;;;;;5047089;28;20208;-60
2021/03/27 08:20:59;;;;;;;48.60;31.33;;;13.00;90.70;;;;;;5065761;28;20201;-60
2021/03/27 08:23:53;;;;;;;48.70;33.03;;;13.00;90.40;;;;;;5068235;28;20297;-60
2021/03/27 08:26:34;;;;;;;50.33;33.80;;;13.00;90.50;;;;;;5066571;28;20247;-60
2021/03/27 08:29:28;;;;;;;48.33;33.63;;;13.00;90.50;;;;;;5067338;28;20284;-60
2021/03/27 08:32:21;;;;;;;47.53;31.83;;;13.10;90.40;;;;;;5057632;28;20562;-59
2021/03/27 08:35:16;;;;;;;45.13;31.10;;;13.10;90.20;;;;;;5060340;28;20242;-60
2021/03/27 08:37:58;;;;;;;47.77;31.23;;;13.20;90.00;;;;;;5062975;28;20210;-60
2021/03/27 08:40:43;;;;;;;53.13;33.50;;;13.10;90.00;;;;;;5061046;28;20252;-60
2021/03/27 08:43:28;;;;;;;49.63;33.53;;;13.20;90.00;;;;;;5067060;28;20213;-60
2021/03/27 08:46:17;;;;;;;47.87;32.30;;;13.30;90.00;;;;;;5060637;28;20232;-60
2021/03/27 08:49:44;;;;;;;45.90;31.70;;;13.30;89.60;;;;;;5048126;28;20225;-60
2021/03/27 08:52:32;;;;;;;46.90;31.73;;;13.30;89.20;;;;;;4959955;28;20232;-60
2021/03/27 08:55:20;;;;;;;49.80;33.90;;;13.30;89.00;;;;;;4971047;28;20272;-60
2021/03/27 08:58:08;;;;;;;50.97;31.97;;;13.40;89.20;;;;;;5044019;28;20198;-59
2021/03/27 09:01:08;;;;;;;49.37;32.43;;;13.40;88.90;;;;;;5044082;28;20229;-60
2021/03/27 09:03:47;;;;;;;48.97;32.30;;;13.40;88.90;;;;;;5066529;28;20305;-60
2021/03/27 09:06:35;;;;;;;52.30;33.27;;;13.50;88.80;;;;;;5063713;28;20210;-60
2021/03/27 09:09:26;;;;;;;45.40;31.77;;;13.50;88.70;;;;;;5042488;28;20229;-60
2021/03/27 09:12:04;;;;;;;47.07;31.90;;;13.60;88.60;;;;;;5047965;28;20249;-60
2021/03/27 09:14:46;;;;;;;46.40;30.77;;;13.50;88.00;;;;;;5066750;28;20615;-60
2021/03/27 09:17:30;;;;;;;55.20;31.53;;;13.50;87.90;;;;;;5063826;28;20693;-60
2021/03/27 09:20:18;;;;;;;45.47;31.43;;;13.60;88.00;;;;;;5062875;28;20202;-60
2021/03/27 09:23:02;;;;;;;51.00;31.07;;;13.60;87.90;;;;;;5048094;28;20626;-60
2021/03/27 09:25:55;;;;;;;51.07;31.67;;;13.70;87.60;;;;;;5055365;28;20647;-60
2021/03/27 09:28:33;;;;;;;49.50;30.60;;;13.80;87.50;;;;;;5062303;28;20234;-60
2021/03/27 09:31:22;;;;;;;44.50;29.30;;;13.80;87.00;;;;;;5053292;28;20221;-60
2021/03/27 09:34:05;;;;;;;45.87;30.30;;;13.90;87.00;;;;;;5062664;28;20203;-60
2021/03/27 09:36:51;;;;;;;48.57;29.07;;;13.90;86.60;;;;;;5074977;28;20272;-60
2021/03/27 09:39:26;;;;;;;41.57;27.90;;;13.90;86.40;;;;;;5067742;28;20229;-60
2021/03/27 09:42:43;;;;;;;46.73;29.27;;;14.00;85.90;;;;;;5054667;28;20209;-60
2021/03/27 09:45:15;;;;;;;45.73;28.23;;;13.90;85.80;;;;;;5033363;28;20586;-60
2021/03/27 09:47:51;;;;;;;43.03;27.40;;;14.00;86.00;;;;;;5046270;28;20225;-60
2021/03/27 09:50:31;;;;;;;42.60;28.93;;;14.00;86.00;;;;;;5056307;28;20217;-60
2021/03/27 09:53:17;;;;;;;45.03;28.63;;;14.00;86.10;;;;;;5063965;28;20261;-60
2021/03/27 09:55:44;;;;;;;44.83;28.67;;;14.00;86.20;;;;;;5073632;28;20271;-60
2021/03/27 09:58:28;;;;;;;41.07;28.17;;;14.00;86.30;;;;;;5067134;28;20326;-60
2021/03/27 10:01:25;;;;;;;40.33;27.03;;;14.00;86.10;;;;;;5061858;28;20537;-60
2021/03/27 10:04:30;;;;;;;44.80;26.90;;;14.00;86.00;;;;;;5066010;28;20279;-60
2021/03/27 10:07:34;;;;;;;42.90;27.00;;;14.00;85.50;;;;;;5069759;28;20270;-60
2021/03/27 10:10:14;;;;;;;41.70;26.33;;;14.00;85.70;;;;;;5070425;28;20249;-60
2021/03/27 10:13:26;;;;;;;40.13;26.60;;;14.00;85.40;;;;;;5052973;28;20303;-60
2021/03/27 10:15:57;;;;;;;37.73;25.33;;;14.00;85.40;;;;;;5051223;28;20210;-60
2021/03/27 10:18:50;;;;;;;41.20;27.10;;;14.00;85.40;;;;;;5072943;28;20605;-60
2021/03/27 10:21:35;;;;;;;39.43;26.47;;;14.00;85.40;;;;;;5062619;28;20206;-60
2021/03/27 10:24:14;;;;;;;46.40;28.30;;;14.00;85.40;;;;;;5052532;28;20646;-60
2021/03/27 10:27:19;;;;;;;41.50;26.17;;;14.00;85.70;;;;;;5063871;28;20216;-60
2021/03/27 10:30:07;;;;;;;42.83;26.67;;;14.00;85.40;;;;;;5074413;28;20267;-60
2021/03/27 10:32:34;;;;;;;32.83;22.97;;;14.00;85.50;;;;;;5050494;28;20233;-60
2021/03/27 10:35:07;;;;;;;39.47;25.43;;;14.00;85.40;;;;;;5062755;28;20206;-60
2021/03/27 10:37:43;;;;;;;40.07;25.03;;;14.00;85.20;;;;;;5046259;28;20611;-60
2021/03/27 10:40:28;;;;;;;42.00;26.30;;;14.00;84.90;;;;;;5064263;28;20703;-60
2021/03/27 10:43:24;;;;;;;38.63;26.07;;;13.90;84.90;;;;;;5057828;28;20557;-60
2021/03/27 10:46:09;;;;;;;35.50;24.67;;;13.90;85.10;;;;;;5073768;28;20655;-60
2021/03/27 10:49:00;;;;;;;40.77;25.27;;;13.90;85.30;;;;;;5070278;28;20233;-60
2021/03/27 10:52:00;;;;;;;32.70;23.90;;;13.90;85.20;;;;;;5065386;28;20214;-60
2021/03/27 10:54:39;;;;;;;40.13;26.13;;;13.90;84.80;;;;;;5047115;28;20280;-60
2021/03/27 10:57:43;;;;;;;36.80;24.30;;;13.90;84.70;;;;;;5065272;28;20220;-60
2021/03/27 11:00:55;;;;;;;40.03;25.00;;;13.90;84.60;;;;;;5062484;28;20219;-60
2021/03/27 11:03:40;;;;;;;37.47;25.00;;;14.00;84.50;;;;;;5064855;28;20232;-60
2021/03/27 11:06:25;;;;;;;39.00;25.47;;;14.10;84.40;;;;;;5063119;28;20210;-60
2021/03/27 11:09:30;;;;;;;37.63;23.40;;;14.30;84.50;;;;;;5037553;28;20210;-60
2021/03/27 11:12:09;;;;;;;35.77;24.50;;;14.50;83.80;;;;;;5052036;28;20312;-60
2021/03/27 11:14:58;;;;;;;31.37;23.97;;;14.60;82.50;;;;;;5071497;28;20197;-60
2021/03/27 11:17:52;;;;;;;35.27;23.87;;;14.80;82.00;;;;;;5049548;28;20214;-60
2021/03/27 11:20:49;;;;;;;34.03;22.57;;;15.10;81.50;;;;;;5063691;28;20240;-63
2021/03/27 11:23:21;;;;;;;33.07;22.87;;;15.30;80.80;;;;;;5053725;28;20221;-60
2021/03/27 11:25:48;;;;;;;31.23;22.03;;;15.60;80.20;;;;;;5050672;28;20210;-60
2021/03/27 11:28:34;;;;;;;34.47;23.03;;;15.80;78.80;;;;;;5064633;28;20214;-60
2021/03/27 11:31:13;;;;;;;33.90;22.73;;;16.00;78.40;;;;;;5048852;28;20718;-61
2021/03/27 11:34:19;;;;;;;33.23;23.30;;;16.10;77.10;;;;;;5071110;28;20686;-60
2021/03/27 11:37:24;;;;;;;32.60;21.17;;;16.20;76.40;;;;;;5046256;28;20275;-60
2021/03/27 11:40:31;;;;;;;30.20;20.33;;;16.20;75.90;;;;;;5057036;28;20212;-60
2021/03/27 11:43:23;;;;;;;29.50;20.87;;;16.20;75.20;;;;;;5066740;28;20205;-60
2021/03/27 11:46:03;;;;;;;26.97;20.67;;;16.20;75.60;;;;;;5063872;28;20202;-60
2021/03/27 11:48:39;;;;;;;27.77;21.03;;;16.20;75.30;;;;;;5069914;28;20224;-60
2021/03/27 11:51:16;;;;;;;30.73;21.43;;;16.20;75.30;;;;;;5072753;28;20213;-60
2021/03/27 11:54:02;;;;;;;27.60;21.17;;;16.30;75.50;;;;;;5047690;28;20304;-60
2021/03/27 11:56:47;;;;;;;31.90;22.03;;;16.20;75.20;;;;;;5071488;28;20205;-60
2021/03/27 12:02:32;;;;;;;30.10;20.23;;;16.30;74.50;;;;;;5064074;28;20508;-60
2021/03/27 12:05:09;;;;;;;28.93;21.47;;;16.40;74.50;;;;;;5059972;28;20225;-60
2021/03/27 12:07:43;;;;;;;32.50;21.83;;;16.40;74.60;;;;;;5051546;28;20202;-60
2021/03/27 12:10:37;;;;;;;26.00;20.87;;;16.50;74.00;;;;;;5048539;28;20252;-60
2021/03/27 12:13:14;;;;;;;28.80;20.40;;;16.60;73.60;;;;;;5070654;28;20217;-60
2021/03/27 12:16:04;;;;;;;26.30;20.97;;;16.80;73.30;;;;;;5124505;27;20293;-60
2021/03/27 12:18:49;;;;;;;29.10;21.07;;;17.00;72.10;;;;;;5100312;28;20300;-60
2021/03/27 12:21:56;;;;;;;30.10;23.03;;;17.00;71.10;;;;;;5102923;28;20212;-61
2021/03/27 12:24:29;;;;;;;29.80;21.87;;;17.10;71.80;;;;;;5098150;28;20211;-60
2021/03/27 12:27:12;;;;;;;31.90;20.97;;;17.20;72.20;;;;;;5102241;28;20217;-60
2021/03/27 12:29:53;;;;;;;28.50;21.63;;;17.30;70.40;;;;;;5097406;28;20213;-60
2021/03/27 12:32:44;;;;;;;28.77;21.77;;;17.40;71.30;;;;;;5088610;28;20678;-60
2021/03/27 12:35:20;;;;;;;26.50;18.40;;;17.40;70.90;;;;;;5094557;28;20256;-60
2021/03/27 12:37:46;;;;;;;31.10;23.10;;;17.40;70.10;;;;;;5094460;28;20196;-60
2021/03/27 12:40:19;;;;;;;33.23;23.00;;;17.40;70.10;;;;;;5094803;28;20205;-60
2021/03/27 12:42:57;;;;;;;35.30;24.60;;;17.50;70.40;;;;;;5094610;28;20255;-60
2021/03/27 12:45:34;;;;;;;32.63;23.73;;;17.50;70.20;;;;;;5086816;28;20201;-60
2021/03/27 12:48:42;;;;;;;29.90;21.73;;;17.50;70.20;;;;;;5106227;28;20215;-60
2021/03/27 12:51:31;;;;;;;28.03;20.53;;;17.60;70.50;;;;;;5085896;28;20246;-61
2021/03/27 12:54:25;;;;;;;26.30;18.63;;;17.70;69.60;;;;;;5100721;28;20220;-60
2021/03/27 12:57:20;;;;;;;27.47;20.27;;;17.80;67.50;;;;;;5097333;28;20202;-60
2021/03/27 12:59:54;;;;;;;24.70;17.70;;;17.80;67.30;;;;;;5094143;28;20220;-60
2021/03/27 13:02:39;;;;;;;31.87;19.60;;;17.90;66.60;;;;;;5099007;28;20344;-61
2021/03/27 13:05:19;;;;;;;25.20;19.47;;;17.90;65.70;;;;;;5102229;28;20217;-60
2021/03/27 13:08:11;;;;;;;24.67;18.30;;;18.00;65.80;;;;;;5093731;28;20209;-60
2021/03/27 13:10:56;;;;;;;32.90;21.80;;;18.00;65.50;;;;;;5080085;28;20215;-61
2021/03/27 13:14:03;;;;;;;23.83;17.37;;;18.10;65.50;;;;;;5094553;28;20517;-60
2021/03/27 13:16:45;;;;;;;26.50;19.37;;;18.10;63.80;;;;;;5028708;28;20212;-61
2021/03/27 13:19:37;;;;;;;19.13;16.50;;;18.10;64.10;;;;;;5077613;28;20211;-61
2021/03/27 13:22:15;;;;;;;20.67;16.27;;;18.10;64.90;;;;;;5083159;28;20205;-61
2021/03/27 13:24:58;;;;;;;23.93;16.77;;;18.00;64.30;;;;;;5075875;28;20209;-60
2021/03/27 13:27:38;;;;;;;25.77;15.60;;;18.00;65.20;;;;;;5061299;28;20216;-60
2021/03/27 13:30:26;;;;;;;18.57;14.87;;;18.20;63.80;;;;;;5051269;28;20634;-60
2021/03/27 13:33:11;;;;;;;17.37;14.87;;;18.30;63.20;;;;;;5045371;28;20225;-60
2021/03/27 13:35:51;;;;;;;22.70;15.43;;;18.30;63.20;;;;;;5064283;28;20229;-60
2021/03/27 13:38:37;;;;;;;20.90;15.23;;;18.60;62.50;;;;;;5065271;28;20534;-60
2021/03/27 13:41:21;;;;;;;23.20;13.50;;;18.80;61.70;;;;;;5067164;28;20610;-60
2021/03/27 13:44:24;;;;;;;24.60;15.77;;;18.90;60.30;;;;;;5054430;28;20308;-60
2021/03/27 13:47:12;;;;;;;22.17;14.37;;;18.90;59.70;;;;;;5055612;28;20305;-60
2021/03/27 13:49:57;;;;;;;17.10;12.40;;;18.70;60.70;;;;;;5061844;28;20210;-60
2021/03/27 13:52:50;;;;;;;15.60;11.17;;;18.70;58.70;;;;;;5050722;28;20202;-60
2021/03/27 13:55:26;;;;;;;20.43;14.27;;;18.60;58.20;;;;;;5019617;28;20227;-60
2021/03/27 13:58:01;;;;;;;20.07;13.20;;;18.50;59.70;;;;;;5043713;28;20219;-60
2021/03/27 14:00:37;;;;;;;11.60;8.97;;;18.60;60.60;;;;;;5067754;28;20201;-60
2021/03/27 14:03:25;;;;;;;12.73;10.83;;;18.50;59.00;;;;;;5059834;28;20251;-60
2021/03/27 14:06:02;;;;;;;18.77;11.30;;;18.40;58.90;;;;;;5064244;28;20210;-60
2021/03/27 14:09:06;;;;;;;17.93;10.50;;;18.30;59.30;;;;;;5046002;28;20216;-60
2021/03/27 14:11:57;;;;;;;19.17;11.50;;;18.20;59.40;;;;;;5054764;28;20296;-60